Terminal Aerodrome Forecast
Issued by NWS Pittsburgh, PA

Current Version | Previous Version | Graphics & Text | Print | Product List | Glossary On
Versions: 1 2 3 4 5 6 7 8 9 10 11 12 13 14 15 16 17 18 19 20 21 22 23 24 25 26 27 28 29 30 31 32 33 34 35 36 37 38 39
000
FTUS41 KPBZ 280500
TAFPIT
TAF
KPIT 280538Z 2806/2912 25005KT P6SM SCT050
     FM280700 29005KT 5SM BR BKN015
     FM281500 31013G15KT P6SM VCSH BKN025
     FM282100 31013G18KT P6SM BKN035
     FM290200 30005KT P6SM FEW035=

USA.gov is the U.S. government's official web portal to all federal, state and local government web resources and services.